Time;durP1;ratioP1;P1;durP2;ratioP2;P2;SDS_P1;SDS_P2;PMS_P1;PMS_P2;Temp;Humidity;BMP_temperature;BMP_pressure;BME280_temperature;BME280_humidity;BME280_pressure;Samples;Min_cycle;Max_cycle;Signal;HPM_P1;HPM_P2
2022/05/22 00:01:13;;;;;;;11.07;4.18;;;;;;;;;;5097621;28;20410;-71
2022/05/22 00:03:39;;;;;;;7.15;4.03;;;;;;;;;;5103431;28;20051;-71
2022/05/22 00:06:05;;;;;;;8.40;3.88;;;;;;;;;;5093756;28;20044;-72
2022/05/22 00:08:31;;;;;;;8.68;4.15;;;;;;;;;;5105866;28;20428;-72
2022/05/22 00:10:57;;;;;;;10.00;5.05;;;;;;;;;;5092621;28;20319;-71
2022/05/22 00:13:23;;;;;;;8.55;4.45;;;;;;;;;;5101752;28;20043;-72
2022/05/22 00:18:34;;;;;;;;;;;;;;;;;;5103654;28;20044;-72
2022/05/22 00:21:01;;;;;;;10.52;4.47;;;;;;;;;;5093435;28;20045;-71
2022/05/22 00:23:28;;;;;;;10.07;4.30;;;;;;;;;;5086543;28;20131;-71
2022/05/22 00:25:57;;;;;;;9.57;4.75;;;;;;;;;;5093176;28;20040;-71
2022/05/22 00:28:24;;;;;;;8.35;4.20;;;;;;;;;;5086138;28;20032;-72
2022/05/22 00:30:50;;;;;;;8.77;4.43;;;;;;;;;;5078319;28;20044;-71
2022/05/22 00:33:16;;;;;;;9.00;4.40;;;;;;;;;;5103314;28;20036;-71
2022/05/22 00:35:42;;;;;;;9.13;4.32;;;;;;;;;;5092903;28;20124;-71
2022/05/22 00:38:08;;;;;;;10.15;4.95;;;;;;;;;;5110131;28;20247;-71
2022/05/22 00:40:35;;;;;;;8.40;4.70;;;;;;;;;;5098126;28;20046;-71
2022/05/22 00:43:01;;;;;;;9.30;4.35;;;;;;;;;;5101473;28;20509;-71
2022/05/22 00:45:28;;;;;;;9.75;5.65;;;;;;;;;;5092370;28;20115;-71
2022/05/22 00:47:54;;;;;;;11.07;5.80;;;;;;;;;;5103943;28;20124;-71
2022/05/22 00:50:22;;;;;;;13.13;6.00;;;;;;;;;;5099028;28;20542;-71
2022/05/22 00:52:53;;;;;;;12.18;6.63;;;;;;;;;;5095647;28;20098;-72
2022/05/22 00:55:24;;;;;;;14.07;6.00;;;;;;;;;;5105935;28;20066;-71
2022/05/22 00:57:52;;;;;;;12.93;6.55;;;;;;;;;;5081332;28;20043;-71
2022/05/22 01:00:21;;;;;;;12.55;5.90;;;;;;;;;;5090468;28;20407;-71
2022/05/22 01:05:33;;;;;;;12.07;5.95;;;;;;;;;;5079103;28;20122;-71
2022/05/22 01:08:00;;;;;;;9.70;5.40;;;;;;;;;;5099928;28;20487;-71
2022/05/22 01:10:33;;;;;;;12.63;5.75;;;;;;;;;;5101968;28;20040;-72
2022/05/22 01:13:00;;;;;;;12.00;5.85;;;;;;;;;;5092489;28;20048;-72
2022/05/22 01:15:26;;;;;;;12.50;6.50;;;;;;;;;;5100567;28;20093;-71
2022/05/22 01:17:53;;;;;;;13.57;6.03;;;;;;;;;;5097351;28;20043;-71
2022/05/22 01:20:20;;;;;;;11.57;5.68;;;;;;;;;;5094892;28;20051;-71
2022/05/22 01:22:46;;;;;;;12.55;5.97;;;;;;;;;;5088230;28;20043;-71
2022/05/22 01:25:12;;;;;;;11.48;5.80;;;;;;;;;;5093600;28;20084;-71
2022/05/22 01:27:39;;;;;;;10.48;5.78;;;;;;;;;;5099504;28;20058;-71
2022/05/22 01:30:09;;;;;;;11.32;6.05;;;;;;;;;;5101581;28;20035;-72
2022/05/22 01:32:36;;;;;;;14.30;5.90;;;;;;;;;;5091830;28;20051;-71
2022/05/22 01:35:02;;;;;;;11.55;6.38;;;;;;;;;;5103619;28;20044;-71
2022/05/22 01:37:28;;;;;;;11.23;6.05;;;;;;;;;;5097077;28;20108;-71
2022/05/22 01:39:54;;;;;;;11.00;5.88;;;;;;;;;;5095466;28;20040;-71
2022/05/22 01:42:21;;;;;;;9.82;5.20;;;;;;;;;;5104783;28;20036;-71
2022/05/22 01:44:47;;;;;;;9.82;5.75;;;;;;;;;;5092243;28;20046;-71
2022/05/22 01:47:13;;;;;;;11.43;6.35;;;;;;;;;;5100328;28;20445;-71
2022/05/22 01:49:39;;;;;;;8.85;5.97;;;;;;;;;;5084553;28;20407;-71
2022/05/22 01:52:05;;;;;;;11.13;6.03;;;;;;;;;;5104062;28;20036;-71
2022/05/22 01:54:32;;;;;;;12.18;6.45;;;;;;;;;;5091699;28;20127;-71
2022/05/22 01:57:04;;;;;;;10.55;6.63;;;;;;;;;;5100273;28;20395;-71
2022/05/22 01:59:31;;;;;;;10.77;6.13;;;;;;;;;;5083828;28;20103;-71
2022/05/22 02:01:57;;;;;;;11.20;6.38;;;;;;;;;;5091646;28;20040;-71
2022/05/22 02:04:23;;;;;;;10.30;6.07;;;;;;;;;;5075195;28;20444;-71
2022/05/22 02:09:34;;;;;;;11.40;6.47;;;;;;;;;;5097169;28;20105;-71
2022/05/22 02:12:00;;;;;;;10.98;6.45;;;;;;;;;;5091194;28;20051;-71
2022/05/22 02:14:26;;;;;;;10.60;5.93;;;;;;;;;;5101979;28;20039;-71
2022/05/22 02:16:53;;;;;;;12.18;5.95;;;;;;;;;;5097130;28;20043;-71
2022/05/22 02:19:19;;;;;;;12.70;6.32;;;;;;;;;;5094215;28;20313;-71
2022/05/22 02:21:45;;;;;;;10.70;6.53;;;;;;;;;;5103983;28;20119;-71
2022/05/22 02:24:11;;;;;;;11.90;7.07;;;;;;;;;;5081931;28;20397;-71
2022/05/22 02:26:38;;;;;;;10.20;6.00;;;;;;;;;;5096250;28;20050;-71
2022/05/22 02:29:05;;;;;;;9.63;6.18;;;;;;;;;;5094638;28;20089;-71
2022/05/22 02:31:31;;;;;;;11.15;6.45;;;;;;;;;;5103872;28;20042;-71
2022/05/22 02:33:58;;;;;;;11.48;6.20;;;;;;;;;;5091530;28;20049;-71
2022/05/22 02:36:24;;;;;;;13.93;7.20;;;;;;;;;;5099067;28;20413;-71
2022/05/22 02:38:51;;;;;;;11.98;7.22;;;;;;;;;;5099824;28;20452;-71
2022/05/22 02:41:17;;;;;;;12.50;7.38;;;;;;;;;;5091130;28;20499;-71
2022/05/22 02:43:44;;;;;;;12.30;7.32;;;;;;;;;;5103372;28;20036;-71
2022/05/22 02:46:11;;;;;;;10.55;6.88;;;;;;;;;;5095641;28;20036;-71
2022/05/22 02:48:37;;;;;;;12.88;7.43;;;;;;;;;;5095443;28;20036;-71
2022/05/22 02:51:04;;;;;;;11.52;7.75;;;;;;;;;;5103192;28;20126;-71
2022/05/22 02:53:30;;;;;;;11.23;6.93;;;;;;;;;;5090909;28;20035;-70
2022/05/22 02:55:56;;;;;;;11.55;6.80;;;;;;;;;;5099931;28;20047;-71
2022/05/22 02:58:22;;;;;;;11.02;6.95;;;;;;;;;;5098455;28;20127;-71
2022/05/22 03:00:48;;;;;;;11.25;6.97;;;;;;;;;;5075565;28;20139;-71
2022/05/22 03:03:14;;;;;;;11.57;7.00;;;;;;;;;;5103721;28;20032;-71
2022/05/22 03:08:25;;;;;;;11.50;6.63;;;;;;;;;;5095545;28;20055;-71
2022/05/22 03:10:51;;;;;;;8.48;5.72;;;;;;;;;;5107580;28;20035;-71
2022/05/22 03:13:17;;;;;;;10.48;5.93;;;;;;;;;;5093954;28;20222;-71
2022/05/22 03:15:44;;;;;;;10.82;6.57;;;;;;;;;;5099588;28;20560;-71
2022/05/22 03:18:10;;;;;;;10.32;5.90;;;;;;;;;;5099361;28;20414;-71
2022/05/22 03:20:36;;;;;;;11.15;6.82;;;;;;;;;;5107109;28;20043;-71
2022/05/22 03:23:02;;;;;;;11.23;6.70;;;;;;;;;;5077615;28;20052;-71
2022/05/22 03:25:29;;;;;;;12.55;7.50;;;;;;;;;;5103378;28;20036;-71
2022/05/22 03:27:55;;;;;;;12.63;7.55;;;;;;;;;;5102470;28;20104;-71
2022/05/22 03:30:21;;;;;;;13.80;7.75;;;;;;;;;;5111868;28;20039;-71
2022/05/22 03:32:47;;;;;;;11.70;7.25;;;;;;;;;;5094314;28;20036;-71
2022/05/22 03:35:13;;;;;;;11.80;7.55;;;;;;;;;;5103875;28;20136;-71
2022/05/22 03:37:40;;;;;;;12.32;7.97;;;;;;;;;;5101334;28;20047;-71
2022/05/22 03:40:06;;;;;;;11.55;6.30;;;;;;;;;;5107565;28;20043;-71
2022/05/22 03:42:33;;;;;;;11.95;7.13;;;;;;;;;;5094617;28;20467;-71
2022/05/22 03:44:59;;;;;;;11.90;6.15;;;;;;;;;;5104303;28;20058;-72
2022/05/22 03:47:26;;;;;;;10.48;6.43;;;;;;;;;;5084073;28;20352;-71
2022/05/22 03:49:52;;;;;;;11.60;7.18;;;;;;;;;;5079468;28;20407;-70
2022/05/22 03:52:18;;;;;;;9.25;6.60;;;;;;;;;;5106706;28;20044;-71
2022/05/22 03:54:44;;;;;;;9.50;6.22;;;;;;;;;;5096193;28;20172;-71
2022/05/22 03:57:11;;;;;;;9.82;6.88;;;;;;;;;;5100830;28;20047;-71
2022/05/22 03:59:40;;;;;;;11.40;6.80;;;;;;;;;;5086897;28;20043;-70
2022/05/22 04:02:06;;;;;;;11.82;7.10;;;;;;;;;;5093891;28;20039;-70
2022/05/22 04:04:33;;;;;;;10.35;7.05;;;;;;;;;;5104762;28;20502;-71
2022/05/22 04:06:59;;;;;;;12.32;7.53;;;;;;;;;;5100040;28;20448;-71
2022/05/22 04:09:27;;;;;;;10.48;5.82;;;;;;;;;;5093569;28;20377;-71
2022/05/22 04:11:53;;;;;;;11.10;7.32;;;;;;;;;;5106429;28;20241;-71
2022/05/22 04:14:19;;;;;;;9.95;6.97;;;;;;;;;;5068109;28;20040;-71
2022/05/22 04:16:46;;;;;;;14.95;7.43;;;;;;;;;;5098926;28;20043;-71
2022/05/22 04:19:12;;;;;;;12.25;7.22;;;;;;;;;;5080247;28;20495;-71
2022/05/22 04:21:38;;;;;;;13.02;7.82;;;;;;;;;;5077260;28;20089;-71
2022/05/22 04:26:49;;;;;;;14.00;8.20;;;;;;;;;;5096854;28;20043;-71
2022/05/22 04:29:15;;;;;;;12.30;7.68;;;;;;;;;;5086410;28;20110;-71
2022/05/22 04:31:41;;;;;;;14.40;7.95;;;;;;;;;;5076650;28;20508;-71
2022/05/22 04:34:07;;;;;;;12.70;7.25;;;;;;;;;;5103829;28;20411;-72
2022/05/22 04:36:34;;;;;;;12.40;7.93;;;;;;;;;;5099277;28;20066;-71
2022/05/22 04:39:00;;;;;;;14.25;7.90;;;;;;;;;;5081744;28;20051;-71
2022/05/22 04:41:26;;;;;;;13.20;7.85;;;;;;;;;;5071702;28;20048;-71
2022/05/22 04:43:52;;;;;;;13.82;8.02;;;;;;;;;;5101413;28;20044;-71
2022/05/22 04:46:18;;;;;;;12.60;8.25;;;;;;;;;;5097890;28;20035;-70
2022/05/22 04:48:44;;;;;;;12.50;7.70;;;;;;;;;;5096391;28;20046;-70
2022/05/22 04:51:10;;;;;;;15.35;7.97;;;;;;;;;;5105852;28;20039;-71
2022/05/22 04:53:37;;;;;;;12.30;7.68;;;;;;;;;;5087497;28;20173;-71
2022/05/22 04:56:03;;;;;;;12.80;7.80;;;;;;;;;;5097763;28;20046;-71
2022/05/22 04:58:29;;;;;;;14.40;8.23;;;;;;;;;;5096527;28;20047;-71
2022/05/22 05:00:55;;;;;;;14.68;8.52;;;;;;;;;;5092551;28;20048;-71
2022/05/22 05:03:22;;;;;;;12.02;7.88;;;;;;;;;;5084926;28;20549;-71
2022/05/22 05:05:56;;;;;;;13.98;7.72;;;;;;;;;;5089566;28;20483;-71
2022/05/22 05:08:22;;;;;;;14.55;8.10;;;;;;;;;;5101702;28;20039;-71
2022/05/22 05:10:48;;;;;;;16.05;8.68;;;;;;;;;;5075636;28;20116;-71
2022/05/22 05:13:15;;;;;;;17.65;8.57;;;;;;;;;;5079171;28;20043;-71
2022/05/22 05:15:41;;;;;;;14.82;8.35;;;;;;;;;;5100739;28;20437;-71
2022/05/22 05:18:07;;;;;;;12.50;7.53;;;;;;;;;;5083177;28;20036;-71
2022/05/22 05:20:47;;;;;;;13.43;8.15;;;;;;;;;;5061098;28;20036;-71
2022/05/22 05:23:13;;;;;;;13.23;8.68;;;;;;;;;;5087485;28;20046;-70
2022/05/22 05:25:39;;;;;;;12.60;7.63;;;;;;;;;;5078747;28;20036;-71
2022/05/22 05:28:05;;;;;;;15.38;8.27;;;;;;;;;;5085378;28;20518;-71
2022/05/22 05:30:32;;;;;;;13.25;8.45;;;;;;;;;;5084897;28;20075;-72
2022/05/22 05:32:58;;;;;;;14.98;8.55;;;;;;;;;;5088952;28;20038;-71
2022/05/22 05:35:24;;;;;;;14.45;9.20;;;;;;;;;;5097649;28;20059;-72
2022/05/22 05:37:51;;;;;;;20.27;10.63;;;;;;;;;;5068443;28;20052;-72
2022/05/22 05:40:17;;;;;;;18.23;10.55;;;;;;;;;;5068892;28;20056;-71
2022/05/22 05:42:43;;;;;;;15.88;8.93;;;;;;;;;;5093829;28;20035;-71
2022/05/22 05:45:11;;;;;;;16.52;8.77;;;;;;;;;;5098307;28;20084;-72
2022/05/22 05:47:37;;;;;;;17.25;9.80;;;;;;;;;;5087771;28;20036;-72
2022/05/22 05:50:05;;;;;;;18.15;10.38;;;;;;;;;;5092788;28;20422;-72
2022/05/22 05:52:31;;;;;;;18.77;10.88;;;;;;;;;;5070218;28;20036;-72
2022/05/22 05:54:57;;;;;;;20.30;11.07;;;;;;;;;;5093131;28;20126;-72
2022/05/22 05:57:27;;;;;;;16.08;10.02;;;;;;;;;;5087536;28;20036;-72
2022/05/22 05:59:56;;;;;;;20.55;11.07;;;;;;;;;;5080376;28;20433;-71
2022/05/22 06:02:23;;;;;;;13.35;9.45;;;;;;;;;;5079426;28;20127;-72
2022/05/22 06:04:49;;;;;;;18.05;9.80;;;;;;;;;;5093151;28;20093;-71
2022/05/22 06:07:15;;;;;;;17.60;10.05;;;;;;;;;;5084278;28;20409;-72
2022/05/22 06:09:41;;;;;;;18.73;10.88;;;;;;;;;;5087357;28;20533;-71
2022/05/22 06:12:07;;;;;;;20.40;11.38;;;;;;;;;;5081844;28;20031;-71
2022/05/22 06:14:34;;;;;;;18.63;10.05;;;;;;;;;;5093070;28;20123;-71
2022/05/22 06:17:00;;;;;;;18.27;10.90;;;;;;;;;;5081256;28;20040;-73
2022/05/22 06:22:29;;;;;;;22.52;10.00;;;;;;;;;;5047817;28;20047;-72
2022/05/22 06:24:56;;;;;;;18.08;10.40;;;;;;;;;;5079556;28;20056;-72
2022/05/22 06:27:22;;;;;;;18.52;10.50;;;;;;;;;;5086504;28;20040;-71
2022/05/22 06:29:49;;;;;;;20.65;11.13;;;;;;;;;;5086780;28;20380;-72
2022/05/22 06:32:16;;;;;;;20.17;10.75;;;;;;;;;;5087312;28;20093;-72
2022/05/22 06:34:44;;;;;;;19.60;9.75;;;;;;;;;;5094903;28;20031;-72
2022/05/22 06:37:11;;;;;;;23.42;11.05;;;;;;;;;;5066446;28;20519;-71
2022/05/22 06:39:54;;;;;;;22.52;12.05;;;;;;;;;;5077253;28;20061;-72
2022/05/22 06:42:23;;;;;;;21.23;11.70;;;;;;;;;;5081876;28;20042;-71
2022/05/22 06:44:51;;;;;;;24.63;12.18;;;;;;;;;;5070087;28;20407;-72
2022/05/22 06:47:17;;;;;;;18.45;9.85;;;;;;;;;;5074719;28;20462;-72
2022/05/22 06:49:44;;;;;;;26.13;10.48;;;;;;;;;;5102368;28;20083;-72
2022/05/22 06:52:10;;;;;;;21.85;10.30;;;;;;;;;;5096548;28;20460;-72
2022/05/22 06:54:37;;;;;;;17.30;9.05;;;;;;;;;;5094922;28;20488;-72
2022/05/22 06:57:04;;;;;;;23.80;8.82;;;;;;;;;;5088457;28;20316;-72
2022/05/22 06:59:30;;;;;;;19.48;8.80;;;;;;;;;;5102720;28;20051;-72
2022/05/22 07:01:59;;;;;;;19.70;8.25;;;;;;;;;;5095644;28;20277;-72
2022/05/22 07:04:25;;;;;;;19.88;8.88;;;;;;;;;;5094173;28;20104;-72
2022/05/22 07:06:51;;;;;;;19.23;8.48;;;;;;;;;;5089759;28;20395;-72
2022/05/22 07:09:17;;;;;;;15.32;7.15;;;;;;;;;;5102955;28;20414;-72
2022/05/22 07:11:45;;;;;;;17.67;6.80;;;;;;;;;;5095647;28;20039;-72
2022/05/22 07:14:16;;;;;;;17.98;7.78;;;;;;;;;;5095242;28;20040;-72
2022/05/22 07:16:43;;;;;;;17.63;7.22;;;;;;;;;;5091427;28;20095;-72
2022/05/22 07:19:10;;;;;;;16.80;7.22;;;;;;;;;;5103015;28;20130;-71
2022/05/22 07:21:36;;;;;;;15.43;6.57;;;;;;;;;;5095778;28;20304;-72
2022/05/22 07:24:02;;;;;;;12.32;5.60;;;;;;;;;;5084298;28;20364;-72
2022/05/22 07:26:29;;;;;;;15.35;6.03;;;;;;;;;;5079026;28;20040;-72
2022/05/22 07:28:58;;;;;;;13.82;5.75;;;;;;;;;;5102943;28;20040;-72
2022/05/22 07:31:25;;;;;;;11.82;4.80;;;;;;;;;;5095393;28;20522;-72
2022/05/22 07:33:52;;;;;;;12.57;4.63;;;;;;;;;;5077755;28;20628;-72
2022/05/22 07:36:18;;;;;;;12.30;5.10;;;;;;;;;;5076923;28;20048;-72
2022/05/22 07:38:45;;;;;;;10.73;5.15;;;;;;;;;;5102873;28;20124;-73
2022/05/22 07:41:14;;;;;;;13.27;5.25;;;;;;;;;;5077793;28;20334;-72
2022/05/22 07:43:41;;;;;;;11.02;5.07;;;;;;;;;;5094547;28;20123;-73
2022/05/22 07:46:07;;;;;;;15.70;5.53;;;;;;;;;;5103460;28;20040;-73
2022/05/22 07:48:34;;;;;;;10.90;5.13;;;;;;;;;;5086077;28;20086;-73
2022/05/22 07:51:01;;;;;;;13.55;5.28;;;;;;;;;;5098934;28;20124;-72
2022/05/22 07:53:28;;;;;;;12.07;4.95;;;;;;;;;;5098670;28;20092;-72
2022/05/22 07:55:54;;;;;;;13.52;5.88;;;;;;;;;;5092755;28;20044;-72
2022/05/22 07:58:21;;;;;;;11.70;4.50;;;;;;;;;;5107164;28;20051;-72
2022/05/22 08:00:48;;;;;;;12.43;4.57;;;;;;;;;;5080720;28;20071;-74
2022/05/22 08:03:16;;;;;;;11.32;4.30;;;;;;;;;;5099015;28;20380;-73
2022/05/22 08:05:42;;;;;;;12.75;4.28;;;;;;;;;;5087632;28;20355;-73
2022/05/22 08:08:09;;;;;;;12.85;4.65;;;;;;;;;;5110490;28;20495;-73
2022/05/22 08:10:36;;;;;;;14.50;4.57;;;;;;;;;;5103060;28;20044;-73
2022/05/22 08:13:03;;;;;;;12.32;4.95;;;;;;;;;;5101318;28;20043;-73
2022/05/22 08:15:30;;;;;;;13.00;4.38;;;;;;;;;;5094880;28;20384;-73
2022/05/22 08:17:56;;;;;;;15.48;4.60;;;;;;;;;;5106514;28;20488;-73
2022/05/22 08:20:23;;;;;;;10.50;3.95;;;;;;;;;;5096883;28;20035;-73
2022/05/22 08:22:54;;;;;;;9.38;4.00;;;;;;;;;;5099120;28;20038;-73
2022/05/22 08:25:20;;;;;;;11.35;3.90;;;;;;;;;;5073309;28;20044;-73
2022/05/22 08:27:47;;;;;;;11.88;3.10;;;;;;;;;;5106418;28;20089;-73
2022/05/22 08:30:14;;;;;;;10.98;2.80;;;;;;;;;;5096457;28;20054;-73
2022/05/22 08:32:41;;;;;;;9.30;3.33;;;;;;;;;;5098637;28;20051;-74
2022/05/22 08:35:08;;;;;;;9.95;3.55;;;;;;;;;;5104566;28;20042;-73
2022/05/22 08:37:34;;;;;;;7.70;3.03;;;;;;;;;;5076053;28;20044;-73
2022/05/22 08:40:01;;;;;;;11.55;4.10;;;;;;;;;;5080495;28;20123;-73
2022/05/22 08:42:37;;;;;;;10.23;3.35;;;;;;;;;;5099102;28;20089;-72
2022/05/22 08:45:07;;;;;;;12.05;3.50;;;;;;;;;;5088390;28;20414;-73
2022/05/22 08:47:38;;;;;;;10.15;3.08;;;;;;;;;;5076839;28;20043;-73
2022/05/22 08:50:07;;;;;;;9.48;3.13;;;;;;;;;;5101411;28;20040;-73
2022/05/22 08:52:36;;;;;;;11.73;2.85;;;;;;;;;;5102224;28;20050;-73
2022/05/22 08:55:17;;;;;;;10.02;2.70;;;;;;;;;;5092912;28;20043;-73
2022/05/22 08:59:02;;;;;;;9.90;2.35;;;;;;;;;;5102499;28;20047;-73
2022/05/22 09:01:08;;;;;;;8.55;3.38;;;;;;;;;;5100436;28;20266;-73
2022/05/22 09:03:57;;;;;;;9.93;2.47;;;;;;;;;;5095235;28;20043;-73
2022/05/22 09:06:36;;;;;;;8.40;2.60;;;;;;;;;;5078770;28;20529;-73
2022/05/22 09:09:03;;;;;;;8.77;2.33;;;;;;;;;;5105506;28;20049;-73
2022/05/22 09:11:38;;;;;;;10.68;3.05;;;;;;;;;;5095382;28;20031;-73
2022/05/22 09:14:10;;;;;;;10.32;2.88;;;;;;;;;;5080283;28;20127;-73
2022/05/22 09:16:43;;;;;;;8.20;2.30;;;;;;;;;;5088602;28;20046;-73
2022/05/22 09:19:15;;;;;;;8.77;2.50;;;;;;;;;;5093804;28;20495;-74
2022/05/22 09:22:02;;;;;;;10.65;2.28;;;;;;;;;;5082305;28;20036;-73
2022/05/22 09:24:35;;;;;;;11.00;3.13;;;;;;;;;;5104816;28;20047;-73
2022/05/22 09:27:17;;;;;;;9.15;2.58;;;;;;;;;;5093243;28;20065;-73
2022/05/22 09:29:49;;;;;;;7.47;2.72;;;;;;;;;;5097431;28;20071;-73
2022/05/22 09:32:15;;;;;;;8.30;2.58;;;;;;;;;;5104829;28;20046;-73
2022/05/22 09:35:05;;;;;;;10.18;2.85;;;;;;;;;;5091946;28;20050;-73
2022/05/22 09:37:50;;;;;;;8.15;2.70;;;;;;;;;;5092679;28;20551;-73
2022/05/22 09:40:29;;;;;;;11.07;2.83;;;;;;;;;;5104935;28;20055;-73
2022/05/22 09:43:11;;;;;;;11.57;2.95;;;;;;;;;;5094869;28;20486;-73
2022/05/22 09:45:56;;;;;;;8.40;2.58;;;;;;;;;;5078697;28;20121;-73
2022/05/22 09:48:37;;;;;;;8.40;2.35;;;;;;;;;;5087645;28;20126;-73
2022/05/22 09:51:06;;;;;;;5.95;2.33;;;;;;;;;;5096941;28;20119;-73
2022/05/22 09:53:38;;;;;;;7.45;2.35;;;;;;;;;;5088657;28;20048;-73
2022/05/22 09:56:27;;;;;;;7.53;1.95;;;;;;;;;;5086666;28;20043;-73
2022/05/22 09:59:00;;;;;;;9.23;2.30;;;;;;;;;;5080578;28;20449;-73
2022/05/22 10:01:35;;;;;;;6.63;2.25;;;;;;;;;;5101357;28;20039;-73
2022/05/22 10:04:01;;;;;;;;;;;;;;;;;;5091931;28;20044;-73
2022/05/22 10:06:43;;;;;;;7.60;2.33;;;;;;;;;;5096193;28;19916;-73
2022/05/22 10:09:26;;;;;;;6.18;2.03;;;;;;;;;;5095893;28;20032;-73
2022/05/22 10:11:58;;;;;;;7.28;2.33;;;;;;;;;;5104222;28;20063;-73
2022/05/22 10:14:34;;;;;;;8.43;2.30;;;;;;;;;;5094613;28;20088;-73
2022/05/22 10:17:23;;;;;;;7.25;1.90;;;;;;;;;;5095702;28;20069;-73
2022/05/22 10:19:49;;;;;;;5.82;2.08;;;;;;;;;;5104110;28;20415;-73
2022/05/22 10:22:15;;;;;;;8.48;2.83;;;;;;;;;;5094209;28;20130;-73
2022/05/22 10:24:55;;;;;;;6.45;2.30;;;;;;;;;;5097353;28;20036;-74
2022/05/22 10:27:39;;;;;;;8.98;2.30;;;;;;;;;;5104061;28;20039;-73
2022/05/22 10:30:07;;;;;;;9.35;2.15;;;;;;;;;;5070184;28;20106;-73
2022/05/22 10:32:42;;;;;;;8.45;2.28;;;;;;;;;;5071058;28;20031;-73
2022/05/22 10:35:15;;;;;;;7.82;2.30;;;;;;;;;;5092032;28;20423;-73
2022/05/22 10:37:46;;;;;;;9.00;2.20;;;;;;;;;;5074763;28;20056;-72
2022/05/22 10:40:17;;;;;;;9.05;2.47;;;;;;;;;;5098950;28;20052;-73
2022/05/22 10:42:45;;;;;;;5.68;2.05;;;;;;;;;;5100967;28;20082;-72
2022/05/22 10:45:18;;;;;;;6.32;2.17;;;;;;;;;;5090806;28;20155;-73
2022/05/22 10:47:44;;;;;;;7.68;1.85;;;;;;;;;;5090995;28;20436;-72
2022/05/22 10:50:24;;;;;;;13.75;4.45;;;;;;;;;;5098548;28;20082;-73
2022/05/22 10:52:51;;;;;;;10.25;2.30;;;;;;;;;;5102749;28;20119;-72
2022/05/22 10:55:35;;;;;;;9.80;2.10;;;;;;;;;;5091063;28;20047;-73
2022/05/22 10:58:04;;;;;;;9.07;2.28;;;;;;;;;;5097750;28;20052;-72
2022/05/22 11:00:31;;;;;;;6.90;1.88;;;;;;;;;;5100822;28;20047;-73
2022/05/22 11:03:09;;;;;;;7.55;2.00;;;;;;;;;;5086572;28;20058;-72
2022/05/22 11:05:35;;;;;;;6.38;2.20;;;;;;;;;;5094379;28;20494;-73
2022/05/22 11:08:01;;;;;;;4.97;2.00;;;;;;;;;;5093698;28;20060;-73
2022/05/22 11:10:29;;;;;;;5.68;2.40;;;;;;;;;;5081739;28;20597;-73
2022/05/22 11:13:08;;;;;;;5.70;1.95;;;;;;;;;;5103367;28;20039;-73
2022/05/22 11:15:37;;;;;;;6.70;2.08;;;;;;;;;;5095169;28;20039;-73
2022/05/22 11:18:03;;;;;;;5.15;1.42;;;;;;;;;;5094829;28;20075;-71
2022/05/22 11:20:30;;;;;;;7.90;1.85;;;;;;;;;;5103216;28;20035;-73
2022/05/22 11:23:03;;;;;;;7.95;2.28;;;;;;;;;;5091191;28;20039;-73
2022/05/22 11:25:33;;;;;;;6.63;2.10;;;;;;;;;;5098108;28;20251;-72
2022/05/22 11:28:18;;;;;;;6.25;1.70;;;;;;;;;;5100419;28;20177;-74
2022/05/22 11:31:00;;;;;;;5.65;1.60;;;;;;;;;;5094345;28;20168;-73
2022/05/22 11:33:32;;;;;;;5.20;1.80;;;;;;;;;;5101602;28;20048;-73
2022/05/22 11:36:14;;;;;;;9.18;1.85;;;;;;;;;;5105294;28;20077;-73
2022/05/22 11:38:52;;;;;;;7.45;2.47;;;;;;;;;;5074203;28;20119;-73
2022/05/22 11:41:30;;;;;;;4.22;1.70;;;;;;;;;;5100640;28;20508;-73
2022/05/22 11:43:57;;;;;;;3.38;1.48;;;;;;;;;;5095296;28;20123;-72
2022/05/22 11:46:38;;;;;;;5.68;1.80;;;;;;;;;;5106996;28;20036;-73
2022/05/22 11:49:07;;;;;;;6.05;2.17;;;;;;;;;;5073957;28;20127;-73
2022/05/22 11:51:40;;;;;;;5.32;1.95;;;;;;;;;;5103973;28;20444;-73
2022/05/22 11:54:25;;;;;;;6.75;1.60;;;;;;;;;;5093894;28;20071;-73
2022/05/22 11:56:51;;;;;;;5.82;2.03;;;;;;;;;;5102384;28;20097;-73
2022/05/22 11:59:43;;;;;;;7.72;2.30;;;;;;;;;;5102499;28;20123;-73
2022/05/22 12:02:26;;;;;;;6.20;2.00;;;;;;;;;;5094205;28;20452;-73
2022/05/22 12:04:57;;;;;;;6.40;1.67;;;;;;;;;;5100990;28;20407;-73
2022/05/22 12:07:35;;;;;;;5.82;1.88;;;;;;;;;;5104111;28;20043;-73
2022/05/22 12:10:17;;;;;;;6.88;2.47;;;;;;;;;;5093888;28;20043;-72
2022/05/22 12:12:56;;;;;;;7.28;1.95;;;;;;;;;;5101166;28;20050;-73
2022/05/22 12:15:25;;;;;;;6.82;1.80;;;;;;;;;;5105263;28;20064;-73
2022/05/22 12:17:55;;;;;;;8.60;2.20;;;;;;;;;;5093504;28;20047;-73
2022/05/22 12:20:33;;;;;;;9.68;2.20;;;;;;;;;;5103175;28;20447;-73
2022/05/22 12:23:08;;;;;;;6.65;2.13;;;;;;;;;;5100060;28;20074;-73
2022/05/22 12:25:48;;;;;;;5.50;1.80;;;;;;;;;;5106510;28;20051;-73
2022/05/22 12:28:35;;;;;;;6.40;1.90;;;;;;;;;;5096958;28;20082;-73
2022/05/22 12:31:03;;;;;;;6.05;1.85;;;;;;;;;;5095717;28;20040;-73
2022/05/22 12:33:32;;;;;;;7.70;2.13;;;;;;;;;;5106240;28;20483;-73
2022/05/22 12:35:58;;;;;;;5.78;1.88;;;;;;;;;;5072976;28;20657;-72
2022/05/22 12:38:24;;;;;;;7.75;1.95;;;;;;;;;;5099709;28;20053;-73
2022/05/22 12:41:23;;;;;;;8.32;2.00;;;;;;;;;;5077756;28;20071;-73
2022/05/22 12:43:50;;;;;;;13.48;2.97;;;;;;;;;;5050642;28;20048;-73
2022/05/22 12:46:18;;;;;;;14.18;2.47;;;;;;;;;;5089740;28;20051;-73
2022/05/22 12:48:44;;;;;;;7.00;2.10;;;;;;;;;;5095346;28;20040;-72
2022/05/22 12:51:10;;;;;;;6.72;2.38;;;;;;;;;;5105892;28;20042;-73
2022/05/22 12:53:38;;;;;;;9.85;2.40;;;;;;;;;;5089328;28;20054;-73
2022/05/22 12:56:25;;;;;;;4.85;1.88;;;;;;;;;;5099109;28;20075;-73
2022/05/22 12:58:51;;;;;;;6.47;2.20;;;;;;;;;;5092737;28;20039;-73
2022/05/22 13:01:29;;;;;;;6.68;1.80;;;;;;;;;;5105368;28;20047;-73
2022/05/22 13:03:58;;;;;;;6.68;1.80;;;;;;;;;;5098658;28;20047;-73
2022/05/22 13:06:30;;;;;;;5.25;1.90;;;;;;;;;;5095418;28;20057;-73
2022/05/22 13:08:59;;;;;;;4.85;1.50;;;;;;;;;;5105442;28;20053;-72
2022/05/22 13:11:30;;;;;;;6.95;1.92;;;;;;;;;;5095493;28;20110;-72
2022/05/22 13:13:58;;;;;;;5.47;1.70;;;;;;;;;;5097700;28;20058;-72
2022/05/22 13:16:26;;;;;;;5.45;1.70;;;;;;;;;;5104458;28;20069;-72
2022/05/22 13:18:52;;;;;;;4.60;1.60;;;;;;;;;;5092537;28;20044;-73
2022/05/22 13:21:35;;;;;;;5.55;1.65;;;;;;;;;;5101794;28;20046;-73
2022/05/22 13:24:06;;;;;;;5.28;1.92;;;;;;;;;;5102124;28;20115;-73
2022/05/22 13:26:33;;;;;;;5.95;1.80;;;;;;;;;;5092715;28;20082;-73
2022/05/22 13:29:25;;;;;;;9.93;2.15;;;;;;;;;;5103402;28;20541;-73
2022/05/22 13:31:56;;;;;;;7.55;2.10;;;;;;;;;;5099790;28;20051;-73
2022/05/22 13:34:23;;;;;;;5.85;1.60;;;;;;;;;;5075356;28;20078;-73
2022/05/22 13:37:03;;;;;;;6.05;2.20;;;;;;;;;;5103151;28;20082;-73
2022/05/22 13:39:38;;;;;;;5.30;2.05;;;;;;;;;;5067114;28;20044;-73
2022/05/22 13:42:04;;;;;;;6.60;1.58;;;;;;;;;;5104843;28;20051;-73
2022/05/22 13:44:49;;;;;;;5.30;1.63;;;;;;;;;;5092398;28;20440;-73
2022/05/22 13:47:24;;;;;;;8.32;2.05;;;;;;;;;;5098369;28;20032;-73
2022/05/22 13:49:54;;;;;;;5.22;1.92;;;;;;;;;;5103539;28;20039;-73
2022/05/22 13:52:35;;;;;;;7.68;2.03;;;;;;;;;;5091131;28;20122;-73
2022/05/22 13:55:07;;;;;;;5.18;2.00;;;;;;;;;;5099134;28;20071;-73
2022/05/22 13:57:35;;;;;;;5.40;1.52;;;;;;;;;;5102627;28;20545;-73
2022/05/22 14:00:01;;;;;;;6.25;1.77;;;;;;;;;;5091685;28;20146;-73
2022/05/22 14:02:30;;;;;;;5.70;1.83;;;;;;;;;;5108170;28;20065;-73
2022/05/22 14:04:57;;;;;;;6.35;2.00;;;;;;;;;;5097821;28;20082;-73
2022/05/22 14:07:30;;;;;;;7.43;2.20;;;;;;;;;;5102192;28;20112;-73
2022/05/22 14:09:57;;;;;;;8.50;1.90;;;;;;;;;;5091336;28;20039;-72
2022/05/22 14:12:43;;;;;;;6.72;1.80;;;;;;;;;;5101824;28;20553;-72
2022/05/22 14:15:10;;;;;;;5.28;1.70;;;;;;;;;;5101040;28;20043;-73
2022/05/22 14:17:37;;;;;;;5.60;1.73;;;;;;;;;;5091308;28;20046;-73
2022/05/22 14:20:07;;;;;;;3.65;1.45;;;;;;;;;;5103108;28;20043;-73
2022/05/22 14:22:34;;;;;;;7.25;2.00;;;;;;;;;;5097380;28;20120;-73
2022/05/22 14:25:00;;;;;;;6.63;2.40;;;;;;;;;;5094432;28;20044;-73
2022/05/22 14:27:39;;;;;;;5.53;1.60;;;;;;;;;;5103916;28;20036;-73
2022/05/22 14:30:25;;;;;;;5.57;1.90;;;;;;;;;;5077171;28;20093;-73
2022/05/22 14:32:59;;;;;;;6.10;1.70;;;;;;;;;;5094381;28;20062;-73
2022/05/22 14:35:26;;;;;;;4.95;1.90;;;;;;;;;;5086855;28;20043;-73
2022/05/22 14:37:52;;;;;;;7.25;1.80;;;;;;;;;;5093356;28;20525;-73
2022/05/22 14:40:35;;;;;;;6.85;2.45;;;;;;;;;;5098017;28;20472;-73
2022/05/22 14:43:03;;;;;;;6.78;1.88;;;;;;;;;;5103501;28;20031;-73
2022/05/22 14:45:34;;;;;;;6.30;2.08;;;;;;;;;;5071888;28;20410;-73
2022/05/22 14:48:02;;;;;;;9.15;1.77;;;;;;;;;;5099272;28;20114;-73
2022/05/22 14:50:29;;;;;;;8.25;2.25;;;;;;;;;;5099943;28;20054;-73
2022/05/22 14:53:02;;;;;;;5.82;1.75;;;;;;;;;;5088231;28;20074;-73
2022/05/22 14:55:35;;;;;;;7.63;1.98;;;;;;;;;;5092288;28;20093;-73
2022/05/22 14:58:05;;;;;;;5.93;2.00;;;;;;;;;;5097506;28;20048;-72
2022/05/22 15:00:34;;;;;;;8.15;2.13;;;;;;;;;;5101671;28;20429;-72
2022/05/22 15:03:09;;;;;;;6.32;2.17;;;;;;;;;;5074129;28;20044;-73
2022/05/22 15:05:37;;;;;;;5.57;2.00;;;;;;;;;;5103533;28;20044;-73
2022/05/22 15:08:06;;;;;;;4.05;1.50;;;;;;;;;;5104124;28;20118;-73